sensor_id;sensor_type;location;lat;lon;timestamp;P1;durP1;ratioP1;P2;durP2;ratioP2
1054;SDS011;516;51.482;7.120;2024-02-21T00:00:51;3.37;;;3.07;;
1054;SDS011;516;51.482;7.120;2024-02-21T00:03:17;3.40;;;3.03;;
1054;SDS011;516;51.482;7.120;2024-02-21T00:05:43;3.30;;;3.00;;
1054;SDS011;516;51.482;7.120;2024-02-21T00:08:09;4.73;;;3.10;;
1054;SDS011;516;51.482;7.120;2024-02-21T00:10:35;4.23;;;3.43;;
1054;SDS011;516;51.482;7.120;2024-02-21T00:13:00;4.43;;;3.00;;
1054;SDS011;516;51.482;7.120;2024-02-21T00:15:26;3.20;;;2.90;;
1054;SDS011;516;51.482;7.120;2024-02-21T00:17:52;5.13;;;3.40;;
1054;SDS011;516;51.482;7.120;2024-02-21T00:20:18;3.63;;;3.30;;
1054;SDS011;516;51.482;7.120;2024-02-21T00:22:44;3.40;;;3.00;;
1054;SDS011;516;51.482;7.120;2024-02-21T00:25:09;3.80;;;3.27;;
1054;SDS011;516;51.482;7.120;2024-02-21T00:27:35;3.13;;;2.83;;
1054;SDS011;516;51.482;7.120;2024-02-21T00:30:01;4.50;;;3.27;;
1054;SDS011;516;51.482;7.120;2024-02-21T00:32:27;2.90;;;2.60;;
1054;SDS011;516;51.482;7.120;2024-02-21T00:34:53;4.80;;;3.13;;
1054;SDS011;516;51.482;7.120;2024-02-21T00:37:19;3.70;;;3.40;;
1054;SDS011;516;51.482;7.120;2024-02-21T00:39:45;3.73;;;2.87;;
1054;SDS011;516;51.482;7.120;2024-02-21T00:42:10;4.80;;;3.20;;
1054;SDS011;516;51.482;7.120;2024-02-21T00:44:36;4.27;;;3.30;;
1054;SDS011;516;51.482;7.120;2024-02-21T00:47:01;5.03;;;3.80;;
1054;SDS011;516;51.482;7.120;2024-02-21T00:49:27;4.20;;;2.77;;
1054;SDS011;516;51.482;7.120;2024-02-21T00:51:53;3.80;;;3.13;;
1054;SDS011;516;51.482;7.120;2024-02-21T00:54:18;6.47;;;3.97;;
1054;SDS011;516;51.482;7.120;2024-02-21T00:56:44;3.20;;;2.87;;
1054;SDS011;516;51.482;7.120;2024-02-21T00:59:10;4.67;;;3.20;;
1054;SDS011;516;51.482;7.120;2024-02-21T01:01:35;3.57;;;3.27;;
1054;SDS011;516;51.482;7.120;2024-02-21T01:04:01;5.20;;;3.03;;
1054;SDS011;516;51.482;7.120;2024-02-21T01:06:27;3.77;;;3.37;;
1054;SDS011;516;51.482;7.120;2024-02-21T01:08:52;3.57;;;3.27;;
1054;SDS011;516;51.482;7.120;2024-02-21T01:11:18;3.70;;;3.40;;
1054;SDS011;516;51.482;7.120;2024-02-21T01:13:44;5.40;;;3.87;;
1054;SDS011;516;51.482;7.120;2024-02-21T01:16:09;5.47;;;3.47;;
1054;SDS011;516;51.482;7.120;2024-02-21T01:18:37;6.27;;;3.50;;
1054;SDS011;516;51.482;7.120;2024-02-21T01:21:04;3.90;;;3.30;;
1054;SDS011;516;51.482;7.120;2024-02-21T01:23:32;4.00;;;3.50;;
1054;SDS011;516;51.482;7.120;2024-02-21T01:25:58;3.10;;;2.80;;
1054;SDS011;516;51.482;7.120;2024-02-21T01:28:24;4.23;;;3.10;;
1054;SDS011;516;51.482;7.120;2024-02-21T01:30:50;6.80;;;3.97;;
1054;SDS011;516;51.482;7.120;2024-02-21T01:33:16;3.50;;;2.90;;
1054;SDS011;516;51.482;7.120;2024-02-21T01:35:42;5.03;;;3.30;;
1054;SDS011;516;51.482;7.120;2024-02-21T01:38:08;4.97;;;3.30;;
1054;SDS011;516;51.482;7.120;2024-02-21T01:40:33;3.20;;;2.90;;
1054;SDS011;516;51.482;7.120;2024-02-21T01:42:59;4.47;;;2.90;;
1054;SDS011;516;51.482;7.120;2024-02-21T01:45:24;3.40;;;3.10;;
1054;SDS011;516;51.482;7.120;2024-02-21T01:47:50;4.33;;;3.70;;
1054;SDS011;516;51.482;7.120;2024-02-21T01:50:16;5.23;;;3.40;;
1054;SDS011;516;51.482;7.120;2024-02-21T01:52:43;3.50;;;3.20;;
1054;SDS011;516;51.482;7.120;2024-02-21T01:55:11;3.23;;;2.93;;
1054;SDS011;516;51.482;7.120;2024-02-21T01:57:39;3.27;;;2.80;;
1054;SDS011;516;51.482;7.120;2024-02-21T02:00:06;4.50;;;3.40;;
1054;SDS011;516;51.482;7.120;2024-02-21T02:02:33;4.60;;;3.00;;
1054;SDS011;516;51.482;7.120;2024-02-21T02:04:59;3.90;;;2.80;;
1054;SDS011;516;51.482;7.120;2024-02-21T02:07:26;4.80;;;3.57;;
1054;SDS011;516;51.482;7.120;2024-02-21T02:09:51;4.63;;;3.27;;
1054;SDS011;516;51.482;7.120;2024-02-21T02:12:17;4.50;;;2.93;;
1054;SDS011;516;51.482;7.120;2024-02-21T02:14:42;3.50;;;3.00;;
1054;SDS011;516;51.482;7.120;2024-02-21T02:17:08;3.37;;;3.07;;
1054;SDS011;516;51.482;7.120;2024-02-21T02:19:34;3.67;;;3.20;;
1054;SDS011;516;51.482;7.120;2024-02-21T02:22:04;4.23;;;3.33;;
1054;SDS011;516;51.482;7.120;2024-02-21T02:24:39;2.93;;;2.63;;
1054;SDS011;516;51.482;7.120;2024-02-21T02:27:05;4.53;;;3.10;;
1054;SDS011;516;51.482;7.120;2024-02-21T02:29:31;6.57;;;3.60;;
1054;SDS011;516;51.482;7.120;2024-02-21T02:31:58;3.67;;;3.33;;
1054;SDS011;516;51.482;7.120;2024-02-21T02:34:23;3.60;;;3.30;;
1054;SDS011;516;51.482;7.120;2024-02-21T02:36:49;3.93;;;3.57;;
1054;SDS011;516;51.482;7.120;2024-02-21T02:39:14;3.63;;;3.33;;
1054;SDS011;516;51.482;7.120;2024-02-21T02:41:40;4.27;;;3.30;;
1054;SDS011;516;51.482;7.120;2024-02-21T02:44:06;4.13;;;2.57;;
1054;SDS011;516;51.482;7.120;2024-02-21T02:46:31;3.10;;;2.80;;
1054;SDS011;516;51.482;7.120;2024-02-21T02:48:57;5.30;;;2.93;;
1054;SDS011;516;51.482;7.120;2024-02-21T02:51:22;3.17;;;2.90;;
1054;SDS011;516;51.482;7.120;2024-02-21T02:53:48;3.87;;;3.47;;
1054;SDS011;516;51.482;7.120;2024-02-21T02:56:14;3.70;;;2.87;;
1054;SDS011;516;51.482;7.120;2024-02-21T02:58:42;6.00;;;2.97;;
1054;SDS011;516;51.482;7.120;2024-02-21T03:01:08;3.60;;;2.37;;
1054;SDS011;516;51.482;7.120;2024-02-21T03:03:33;2.70;;;2.50;;
1054;SDS011;516;51.482;7.120;2024-02-21T03:05:59;2.83;;;2.50;;
1054;SDS011;516;51.482;7.120;2024-02-21T03:08:25;4.83;;;3.13;;
1054;SDS011;516;51.482;7.120;2024-02-21T03:10:50;3.10;;;2.80;;
1054;SDS011;516;51.482;7.120;2024-02-21T03:13:16;3.80;;;2.80;;
1054;SDS011;516;51.482;7.120;2024-02-21T03:15:41;3.90;;;3.00;;
1054;SDS011;516;51.482;7.120;2024-02-21T03:18:07;3.13;;;2.67;;
1054;SDS011;516;51.482;7.120;2024-02-21T03:20:33;3.60;;;3.23;;
1054;SDS011;516;51.482;7.120;2024-02-21T03:22:58;3.17;;;2.87;;
1054;SDS011;516;51.482;7.120;2024-02-21T03:25:24;3.13;;;2.73;;
1054;SDS011;516;51.482;7.120;2024-02-21T03:27:50;6.30;;;3.10;;
1054;SDS011;516;51.482;7.120;2024-02-21T03:30:16;5.00;;;3.23;;
1054;SDS011;516;51.482;7.120;2024-02-21T03:32:42;3.03;;;2.73;;
1054;SDS011;516;51.482;7.120;2024-02-21T03:35:08;2.57;;;2.37;;
1054;SDS011;516;51.482;7.120;2024-02-21T03:37:34;2.80;;;2.60;;
1054;SDS011;516;51.482;7.120;2024-02-21T03:39:59;3.30;;;2.67;;
1054;SDS011;516;51.482;7.120;2024-02-21T03:42:25;4.40;;;2.77;;
1054;SDS011;516;51.482;7.120;2024-02-21T03:44:51;3.40;;;2.50;;
1054;SDS011;516;51.482;7.120;2024-02-21T03:47:16;4.10;;;3.47;;
1054;SDS011;516;51.482;7.120;2024-02-21T03:49:42;3.77;;;3.37;;
1054;SDS011;516;51.482;7.120;2024-02-21T03:52:07;4.77;;;3.33;;
1054;SDS011;516;51.482;7.120;2024-02-21T03:54:34;4.67;;;2.60;;
1054;SDS011;516;51.482;7.120;2024-02-21T03:56:59;3.83;;;2.63;;
1054;SDS011;516;51.482;7.120;2024-02-21T03:59:25;3.77;;;3.37;;
1054;SDS011;516;51.482;7.120;2024-02-21T04:01:54;3.03;;;2.83;;
1054;SDS011;516;51.482;7.120;2024-02-21T04:04:20;3.17;;;2.87;;
1054;SDS011;516;51.482;7.120;2024-02-21T04:06:49;3.77;;;2.70;;
1054;SDS011;516;51.482;7.120;2024-02-21T04:09:15;3.30;;;3.00;;
1054;SDS011;516;51.482;7.120;2024-02-21T04:11:41;3.00;;;2.70;;
1054;SDS011;516;51.482;7.120;2024-02-21T04:14:07;3.97;;;3.00;;
1054;SDS011;516;51.482;7.120;2024-02-21T04:16:32;4.27;;;3.00;;
1054;SDS011;516;51.482;7.120;2024-02-21T04:18:59;3.63;;;2.67;;
1054;SDS011;516;51.482;7.120;2024-02-21T04:21:24;3.93;;;3.17;;
1054;SDS011;516;51.482;7.120;2024-02-21T04:23:50;4.27;;;2.93;;
1054;SDS011;516;51.482;7.120;2024-02-21T04:26:16;3.60;;;2.40;;
1054;SDS011;516;51.482;7.120;2024-02-21T04:28:41;4.70;;;2.93;;
1054;SDS011;516;51.482;7.120;2024-02-21T04:31:09;4.70;;;4.00;;
1054;SDS011;516;51.482;7.120;2024-02-21T04:33:35;4.23;;;3.20;;
1054;SDS011;516;51.482;7.120;2024-02-21T04:36:01;3.90;;;3.10;;
1054;SDS011;516;51.482;7.120;2024-02-21T04:38:27;3.10;;;2.80;;
1054;SDS011;516;51.482;7.120;2024-02-21T04:40:53;2.80;;;2.60;;
1054;SDS011;516;51.482;7.120;2024-02-21T04:43:20;3.53;;;3.00;;
1054;SDS011;516;51.482;7.120;2024-02-21T04:45:45;4.03;;;2.90;;
1054;SDS011;516;51.482;7.120;2024-02-21T04:48:11;4.90;;;3.10;;
1054;SDS011;516;51.482;7.120;2024-02-21T04:50:37;3.00;;;2.60;;
1054;SDS011;516;51.482;7.120;2024-02-21T04:53:02;3.80;;;2.73;;
1054;SDS011;516;51.482;7.120;2024-02-21T04:55:28;3.17;;;2.87;;
1054;SDS011;516;51.482;7.120;2024-02-21T04:57:54;3.37;;;3.10;;
1054;SDS011;516;51.482;7.120;2024-02-21T05:00:19;5.20;;;3.03;;
1054;SDS011;516;51.482;7.120;2024-02-21T05:02:45;3.07;;;2.70;;
1054;SDS011;516;51.482;7.120;2024-02-21T05:05:11;3.27;;;3.07;;
1054;SDS011;516;51.482;7.120;2024-02-21T05:07:36;2.70;;;2.33;;
1054;SDS011;516;51.482;7.120;2024-02-21T05:10:02;5.03;;;2.70;;
1054;SDS011;516;51.482;7.120;2024-02-21T05:12:28;2.80;;;2.60;;
1054;SDS011;516;51.482;7.120;2024-02-21T05:14:55;2.43;;;2.20;;
1054;SDS011;516;51.482;7.120;2024-02-21T05:17:20;3.60;;;3.03;;
1054;SDS011;516;51.482;7.120;2024-02-21T05:19:46;5.00;;;3.00;;
1054;SDS011;516;51.482;7.120;2024-02-21T05:22:11;3.07;;;2.37;;
1054;SDS011;516;51.482;7.120;2024-02-21T05:24:38;4.13;;;3.03;;
1054;SDS011;516;51.482;7.120;2024-02-21T05:27:05;3.20;;;2.70;;
1054;SDS011;516;51.482;7.120;2024-02-21T05:29:30;3.07;;;2.63;;
1054;SDS011;516;51.482;7.120;2024-02-21T05:31:56;2.70;;;2.50;;
1054;SDS011;516;51.482;7.120;2024-02-21T05:34:22;3.27;;;2.47;;
1054;SDS011;516;51.482;7.120;2024-02-21T05:36:48;3.00;;;2.27;;
1054;SDS011;516;51.482;7.120;2024-02-21T05:39:17;4.40;;;2.90;;
1054;SDS011;516;51.482;7.120;2024-02-21T05:41:43;2.47;;;2.27;;
1054;SDS011;516;51.482;7.120;2024-02-21T05:44:09;2.83;;;2.00;;
1054;SDS011;516;51.482;7.120;2024-02-21T05:46:35;3.50;;;2.90;;
1054;SDS011;516;51.482;7.120;2024-02-21T05:49:01;2.80;;;2.60;;
1054;SDS011;516;51.482;7.120;2024-02-21T05:51:26;2.53;;;2.33;;
1054;SDS011;516;51.482;7.120;2024-02-21T05:53:52;2.83;;;2.40;;
1054;SDS011;516;51.482;7.120;2024-02-21T05:56:17;2.80;;;2.60;;
1054;SDS011;516;51.482;7.120;2024-02-21T05:58:44;3.50;;;2.37;;
1054;SDS011;516;51.482;7.120;2024-02-21T06:01:10;3.33;;;2.67;;
1054;SDS011;516;51.482;7.120;2024-02-21T06:03:36;2.10;;;2.00;;
1054;SDS011;516;51.482;7.120;2024-02-21T06:06:02;2.73;;;2.53;;
1054;SDS011;516;51.482;7.120;2024-02-21T06:08:29;2.73;;;2.53;;
1054;SDS011;516;51.482;7.120;2024-02-21T06:10:55;5.27;;;2.73;;
1054;SDS011;516;51.482;7.120;2024-02-21T06:13:21;4.10;;;2.40;;
1054;SDS011;516;51.482;7.120;2024-02-21T06:15:48;3.33;;;2.67;;
1054;SDS011;516;51.482;7.120;2024-02-21T06:18:15;2.00;;;1.70;;
1054;SDS011;516;51.482;7.120;2024-02-21T06:20:44;2.00;;;1.90;;
1054;SDS011;516;51.482;7.120;2024-02-21T06:23:11;2.90;;;2.20;;
1054;SDS011;516;51.482;7.120;2024-02-21T06:25:38;3.13;;;2.30;;
1054;SDS011;516;51.482;7.120;2024-02-21T06:28:04;2.20;;;1.97;;
1054;SDS011;516;51.482;7.120;2024-02-21T06:30:30;2.23;;;2.03;;
1054;SDS011;516;51.482;7.120;2024-02-21T06:32:56;2.60;;;2.20;;
1054;SDS011;516;51.482;7.120;2024-02-21T06:35:22;6.47;;;2.73;;
1054;SDS011;516;51.482;7.120;2024-02-21T06:37:51;2.27;;;1.90;;
1054;SDS011;516;51.482;7.120;2024-02-21T06:40:17;4.83;;;2.20;;
1054;SDS011;516;51.482;7.120;2024-02-21T06:42:45;5.60;;;4.03;;
1054;SDS011;516;51.482;7.120;2024-02-21T06:45:11;3.07;;;2.30;;
1054;SDS011;516;51.482;7.120;2024-02-21T06:47:36;1.90;;;1.70;;
1054;SDS011;516;51.482;7.120;2024-02-21T06:50:02;2.20;;;2.00;;
1054;SDS011;516;51.482;7.120;2024-02-21T06:52:28;2.70;;;1.90;;
1054;SDS011;516;51.482;7.120;2024-02-21T06:54:53;2.20;;;2.00;;
1054;SDS011;516;51.482;7.120;2024-02-21T06:57:19;1.77;;;1.67;;
1054;SDS011;516;51.482;7.120;2024-02-21T06:59:45;2.07;;;1.93;;
1054;SDS011;516;51.482;7.120;2024-02-21T07:02:10;2.00;;;1.80;;
1054;SDS011;516;51.482;7.120;2024-02-21T07:04:36;2.23;;;2.03;;
1054;SDS011;516;51.482;7.120;2024-02-21T07:07:01;2.20;;;2.00;;
1054;SDS011;516;51.482;7.120;2024-02-21T07:09:27;3.10;;;2.07;;
1054;SDS011;516;51.482;7.120;2024-02-21T07:11:56;2.33;;;2.13;;
1054;SDS011;516;51.482;7.120;2024-02-21T07:14:25;2.40;;;1.87;;
1054;SDS011;516;51.482;7.120;2024-02-21T07:16:52;2.00;;;1.80;;
1054;SDS011;516;51.482;7.120;2024-02-21T07:19:19;3.63;;;2.00;;
1054;SDS011;516;51.482;7.120;2024-02-21T07:21:45;2.57;;;2.10;;
1054;SDS011;516;51.482;7.120;2024-02-21T07:24:10;4.57;;;2.13;;
1054;SDS011;516;51.482;7.120;2024-02-21T07:26:37;2.30;;;2.10;;
1054;SDS011;516;51.482;7.120;2024-02-21T07:29:06;2.30;;;2.10;;
1054;SDS011;516;51.482;7.120;2024-02-21T07:31:31;2.90;;;2.50;;
1054;SDS011;516;51.482;7.120;2024-02-21T07:34:03;3.17;;;2.13;;
1054;SDS011;516;51.482;7.120;2024-02-21T07:36:29;2.40;;;1.83;;
1054;SDS011;516;51.482;7.120;2024-02-21T07:38:55;2.13;;;1.93;;
1054;SDS011;516;51.482;7.120;2024-02-21T07:41:21;2.80;;;2.13;;
1054;SDS011;516;51.482;7.120;2024-02-21T07:43:46;2.03;;;1.87;;
1054;SDS011;516;51.482;7.120;2024-02-21T07:46:13;2.37;;;2.20;;
1054;SDS011;516;51.482;7.120;2024-02-21T07:48:39;2.27;;;2.07;;
1054;SDS011;516;51.482;7.120;2024-02-21T07:51:05;2.40;;;2.20;;
1054;SDS011;516;51.482;7.120;2024-02-21T07:53:30;2.53;;;1.90;;
1054;SDS011;516;51.482;7.120;2024-02-21T07:55:56;2.50;;;2.30;;
1054;SDS011;516;51.482;7.120;2024-02-21T07:58:21;3.17;;;2.00;;
1054;SDS011;516;51.482;7.120;2024-02-21T08:00:47;4.13;;;2.30;;
1054;SDS011;516;51.482;7.120;2024-02-21T08:03:13;3.97;;;2.77;;
1054;SDS011;516;51.482;7.120;2024-02-21T08:05:40;2.50;;;2.20;;
1054;SDS011;516;51.482;7.120;2024-02-21T08:08:06;2.00;;;1.90;;
1054;SDS011;516;51.482;7.120;2024-02-21T08:10:33;2.03;;;1.83;;
1054;SDS011;516;51.482;7.120;2024-02-21T08:12:58;2.93;;;2.20;;
1054;SDS011;516;51.482;7.120;2024-02-21T08:15:24;4.33;;;2.43;;
1054;SDS011;516;51.482;7.120;2024-02-21T08:17:54;1.60;;;1.50;;
1054;SDS011;516;51.482;7.120;2024-02-21T08:20:26;2.40;;;2.07;;
1054;SDS011;516;51.482;7.120;2024-02-21T08:22:52;2.97;;;2.77;;
1054;SDS011;516;51.482;7.120;2024-02-21T08:25:17;2.20;;;1.87;;
1054;SDS011;516;51.482;7.120;2024-02-21T08:27:43;3.03;;;2.73;;
1054;SDS011;516;51.482;7.120;2024-02-21T08:30:10;2.80;;;2.17;;
1054;SDS011;516;51.482;7.120;2024-02-21T08:32:36;2.20;;;1.83;;
1054;SDS011;516;51.482;7.120;2024-02-21T08:35:02;2.60;;;2.33;;
1054;SDS011;516;51.482;7.120;2024-02-21T08:37:28;4.10;;;2.30;;
1054;SDS011;516;51.482;7.120;2024-02-21T08:39:53;2.23;;;2.03;;
1054;SDS011;516;51.482;7.120;2024-02-21T08:42:19;2.33;;;2.13;;
1054;SDS011;516;51.482;7.120;2024-02-21T08:44:45;4.20;;;2.23;;
1054;SDS011;516;51.482;7.120;2024-02-21T08:47:10;2.50;;;1.97;;
1054;SDS011;516;51.482;7.120;2024-02-21T08:49:37;2.80;;;2.43;;
1054;SDS011;516;51.482;7.120;2024-02-21T08:52:03;2.03;;;1.90;;
1054;SDS011;516;51.482;7.120;2024-02-21T08:54:30;2.97;;;2.37;;
1054;SDS011;516;51.482;7.120;2024-02-21T08:56:56;2.77;;;2.40;;
1054;SDS011;516;51.482;7.120;2024-02-21T08:59:22;2.87;;;2.50;;
1054;SDS011;516;51.482;7.120;2024-02-21T09:01:47;2.23;;;2.03;;
1054;SDS011;516;51.482;7.120;2024-02-21T09:04:13;2.83;;;2.40;;
1054;SDS011;516;51.482;7.120;2024-02-21T09:06:38;2.60;;;2.40;;
1054;SDS011;516;51.482;7.120;2024-02-21T09:09:07;1.83;;;1.70;;
1054;SDS011;516;51.482;7.120;2024-02-21T09:11:34;2.80;;;1.77;;
1054;SDS011;516;51.482;7.120;2024-02-21T09:13:59;2.20;;;1.97;;
1054;SDS011;516;51.482;7.120;2024-02-21T09:16:25;3.20;;;2.20;;
1054;SDS011;516;51.482;7.120;2024-02-21T09:18:51;2.27;;;1.77;;
1054;SDS011;516;51.482;7.120;2024-02-21T09:21:17;1.73;;;1.63;;
1054;SDS011;516;51.482;7.120;2024-02-21T09:23:43;3.43;;;2.13;;
1054;SDS011;516;51.482;7.120;2024-02-21T09:26:10;3.10;;;2.23;;
1054;SDS011;516;51.482;7.120;2024-02-21T09:28:38;1.87;;;1.57;;
1054;SDS011;516;51.482;7.120;2024-02-21T09:31:04;2.80;;;2.00;;
1054;SDS011;516;51.482;7.120;2024-02-21T09:33:30;2.40;;;2.20;;
1054;SDS011;516;51.482;7.120;2024-02-21T09:35:56;1.83;;;1.63;;
1054;SDS011;516;51.482;7.120;2024-02-21T09:38:21;3.60;;;2.03;;
1054;SDS011;516;51.482;7.120;2024-02-21T09:40:47;3.27;;;2.03;;
1054;SDS011;516;51.482;7.120;2024-02-21T09:43:17;2.10;;;1.90;;
1054;SDS011;516;51.482;7.120;2024-02-21T09:45:43;2.43;;;1.93;;
1054;SDS011;516;51.482;7.120;2024-02-21T09:48:25;2.50;;;1.90;;
1054;SDS011;516;51.482;7.120;2024-02-21T09:51:11;2.33;;;1.80;;
1054;SDS011;516;51.482;7.120;2024-02-21T09:53:39;2.70;;;1.80;;
1054;SDS011;516;51.482;7.120;2024-02-21T09:56:10;3.50;;;2.33;;
1054;SDS011;516;51.482;7.120;2024-02-21T09:58:37;2.23;;;2.03;;
1054;SDS011;516;51.482;7.120;2024-02-21T10:01:03;4.67;;;2.73;;
1054;SDS011;516;51.482;7.120;2024-02-21T10:03:32;2.67;;;2.07;;
1054;SDS011;516;51.482;7.120;2024-02-21T10:05:58;2.37;;;2.17;;
1054;SDS011;516;51.482;7.120;2024-02-21T10:08:26;2.13;;;1.77;;
1054;SDS011;516;51.482;7.120;2024-02-21T10:10:51;3.00;;;2.70;;
1054;SDS011;516;51.482;7.120;2024-02-21T10:13:27;2.60;;;1.83;;
1054;SDS011;516;51.482;7.120;2024-02-21T10:16:03;3.30;;;2.17;;
1054;SDS011;516;51.482;7.120;2024-02-21T10:18:35;2.63;;;2.10;;
1054;SDS011;516;51.482;7.120;2024-02-21T10:21:01;2.57;;;2.13;;
1054;SDS011;516;51.482;7.120;2024-02-21T10:23:28;2.63;;;1.70;;
1054;SDS011;516;51.482;7.120;2024-02-21T10:25:54;3.23;;;2.37;;
1054;SDS011;516;51.482;7.120;2024-02-21T10:28:30;2.67;;;2.40;;
1054;SDS011;516;51.482;7.120;2024-02-21T10:30:56;2.87;;;2.57;;
1054;SDS011;516;51.482;7.120;2024-02-21T10:33:21;2.83;;;2.00;;
1054;SDS011;516;51.482;7.120;2024-02-21T10:35:49;2.93;;;2.50;;
1054;SDS011;516;51.482;7.120;2024-02-21T10:38:14;3.03;;;2.40;;
1054;SDS011;516;51.482;7.120;2024-02-21T10:40:40;2.57;;;2.17;;
1054;SDS011;516;51.482;7.120;2024-02-21T10:43:06;3.40;;;2.50;;
1054;SDS011;516;51.482;7.120;2024-02-21T10:45:38;2.90;;;2.30;;
1054;SDS011;516;51.482;7.120;2024-02-21T10:48:12;2.43;;;2.13;;
1054;SDS011;516;51.482;7.120;2024-02-21T10:50:56;3.30;;;2.67;;
1054;SDS011;516;51.482;7.120;2024-02-21T10:56:30;3.80;;;2.10;;
1054;SDS011;516;51.482;7.120;2024-02-21T10:59:00;5.53;;;2.60;;
1054;SDS011;516;51.482;7.120;2024-02-21T11:01:28;2.33;;;1.93;;
1054;SDS011;516;51.482;7.120;2024-02-21T11:03:56;2.83;;;2.30;;
1054;SDS011;516;51.482;7.120;2024-02-21T11:06:24;2.87;;;2.20;;
1054;SDS011;516;51.482;7.120;2024-02-21T11:09:11;2.30;;;1.80;;
1054;SDS011;516;51.482;7.120;2024-02-21T11:11:40;2.87;;;1.60;;
1054;SDS011;516;51.482;7.120;2024-02-21T11:14:08;1.93;;;1.73;;
1054;SDS011;516;51.482;7.120;2024-02-21T11:16:36;2.57;;;2.20;;
1054;SDS011;516;51.482;7.120;2024-02-21T11:19:04;2.33;;;2.13;;
1054;SDS011;516;51.482;7.120;2024-02-21T11:21:35;2.10;;;1.87;;
1054;SDS011;516;51.482;7.120;2024-02-21T11:24:01;3.70;;;2.00;;
1054;SDS011;516;51.482;7.120;2024-02-21T11:26:28;2.43;;;1.97;;
1054;SDS011;516;51.482;7.120;2024-02-21T11:28:56;2.40;;;2.20;;
1054;SDS011;516;51.482;7.120;2024-02-21T11:31:25;2.60;;;2.40;;
1054;SDS011;516;51.482;7.120;2024-02-21T11:33:54;2.93;;;2.70;;
1054;SDS011;516;51.482;7.120;2024-02-21T11:36:25;3.10;;;2.03;;
1054;SDS011;516;51.482;7.120;2024-02-21T11:38:52;1.97;;;1.77;;
1054;SDS011;516;51.482;7.120;2024-02-21T11:41:18;2.10;;;1.90;;
1054;SDS011;516;51.482;7.120;2024-02-21T11:43:46;2.10;;;1.90;;
1054;SDS011;516;51.482;7.120;2024-02-21T11:46:13;2.57;;;2.33;;
1054;SDS011;516;51.482;7.120;2024-02-21T11:48:39;3.90;;;2.50;;
1054;SDS011;516;51.482;7.120;2024-02-21T11:51:06;3.23;;;2.43;;
1054;SDS011;516;51.482;7.120;2024-02-21T11:53:32;2.80;;;2.23;;
1054;SDS011;516;51.482;7.120;2024-02-21T11:55:58;2.97;;;2.70;;
1054;SDS011;516;51.482;7.120;2024-02-21T11:58:24;4.50;;;2.40;;
1054;SDS011;516;51.482;7.120;2024-02-21T12:00:51;2.40;;;2.20;;
1054;SDS011;516;51.482;7.120;2024-02-21T12:03:17;2.13;;;1.90;;
1054;SDS011;516;51.482;7.120;2024-02-21T12:05:43;2.63;;;2.10;;
1054;SDS011;516;51.482;7.120;2024-02-21T12:08:09;2.63;;;2.40;;
1054;SDS011;516;51.482;7.120;2024-02-21T12:10:35;2.33;;;1.97;;
1054;SDS011;516;51.482;7.120;2024-02-21T12:13:10;2.23;;;2.00;;
1054;SDS011;516;51.482;7.120;2024-02-21T12:15:38;2.20;;;2.00;;
1054;SDS011;516;51.482;7.120;2024-02-21T12:18:05;3.00;;;2.00;;
1054;SDS011;516;51.482;7.120;2024-02-21T12:20:30;2.30;;;2.10;;
1054;SDS011;516;51.482;7.120;2024-02-21T12:22:59;2.27;;;2.07;;
1054;SDS011;516;51.482;7.120;2024-02-21T12:25:25;2.50;;;2.10;;
1054;SDS011;516;51.482;7.120;2024-02-21T12:27:52;2.50;;;2.30;;
1054;SDS011;516;51.482;7.120;2024-02-21T12:30:18;2.90;;;1.67;;
1054;SDS011;516;51.482;7.120;2024-02-21T12:32:44;3.63;;;2.40;;
1054;SDS011;516;51.482;7.120;2024-02-21T12:35:10;1.97;;;1.77;;
1054;SDS011;516;51.482;7.120;2024-02-21T12:37:36;4.30;;;2.30;;
1054;SDS011;516;51.482;7.120;2024-02-21T12:40:03;3.40;;;2.07;;
1054;SDS011;516;51.482;7.120;2024-02-21T12:42:33;2.87;;;2.43;;
1054;SDS011;516;51.482;7.120;2024-02-21T12:44:59;1.97;;;1.77;;
1054;SDS011;516;51.482;7.120;2024-02-21T12:47:25;3.57;;;2.53;;
1054;SDS011;516;51.482;7.120;2024-02-21T12:49:52;2.40;;;2.00;;
1054;SDS011;516;51.482;7.120;2024-02-21T12:52:18;2.30;;;2.10;;
1054;SDS011;516;51.482;7.120;2024-02-21T12:54:44;2.40;;;1.80;;
1054;SDS011;516;51.482;7.120;2024-02-21T12:57:10;2.77;;;2.33;;
1054;SDS011;516;51.482;7.120;2024-02-21T12:59:36;2.80;;;2.17;;
1054;SDS011;516;51.482;7.120;2024-02-21T13:02:01;2.10;;;1.90;;
1054;SDS011;516;51.482;7.120;2024-02-21T13:04:27;3.17;;;2.27;;
1054;SDS011;516;51.482;7.120;2024-02-21T13:06:53;2.10;;;1.90;;
1054;SDS011;516;51.482;7.120;2024-02-21T13:09:20;2.60;;;2.00;;
1054;SDS011;516;51.482;7.120;2024-02-21T13:11:46;2.17;;;1.90;;
1054;SDS011;516;51.482;7.120;2024-02-21T13:14:12;2.70;;;2.23;;
1054;SDS011;516;51.482;7.120;2024-02-21T13:16:38;2.33;;;1.83;;
1054;SDS011;516;51.482;7.120;2024-02-21T13:19:08;2.10;;;1.90;;
1054;SDS011;516;51.482;7.120;2024-02-21T13:21:34;3.00;;;2.20;;
1054;SDS011;516;51.482;7.120;2024-02-21T13:24:00;2.57;;;2.30;;
1054;SDS011;516;51.482;7.120;2024-02-21T13:26:26;2.27;;;2.00;;
1054;SDS011;516;51.482;7.120;2024-02-21T13:28:52;2.33;;;2.13;;
1054;SDS011;516;51.482;7.120;2024-02-21T13:31:19;3.70;;;2.23;;
1054;SDS011;516;51.482;7.120;2024-02-21T13:33:45;3.10;;;2.37;;
1054;SDS011;516;51.482;7.120;2024-02-21T13:36:11;2.57;;;2.17;;
1054;SDS011;516;51.482;7.120;2024-02-21T13:38:37;3.10;;;1.80;;
1054;SDS011;516;51.482;7.120;2024-02-21T13:41:04;2.50;;;2.30;;
1054;SDS011;516;51.482;7.120;2024-02-21T13:43:31;5.83;;;2.20;;
1054;SDS011;516;51.482;7.120;2024-02-21T13:45:58;2.37;;;2.17;;
1054;SDS011;516;51.482;7.120;2024-02-21T13:48:24;2.60;;;2.40;;
1054;SDS011;516;51.482;7.120;2024-02-21T13:50:50;2.90;;;1.60;;
1054;SDS011;516;51.482;7.120;2024-02-21T13:53:16;3.50;;;2.23;;
1054;SDS011;516;51.482;7.120;2024-02-21T13:55:44;2.60;;;2.23;;
1054;SDS011;516;51.482;7.120;2024-02-21T13:58:10;3.23;;;2.30;;
1054;SDS011;516;51.482;7.120;2024-02-21T14:00:35;3.50;;;2.00;;
1054;SDS011;516;51.482;7.120;2024-02-21T14:03:01;2.77;;;2.00;;
1054;SDS011;516;51.482;7.120;2024-02-21T14:05:27;6.13;;;2.17;;
1054;SDS011;516;51.482;7.120;2024-02-21T14:07:53;2.20;;;1.80;;
1054;SDS011;516;51.482;7.120;2024-02-21T14:10:19;2.23;;;2.03;;
1054;SDS011;516;51.482;7.120;2024-02-21T14:12:46;2.57;;;2.23;;
1054;SDS011;516;51.482;7.120;2024-02-21T14:15:12;2.83;;;1.87;;
1054;SDS011;516;51.482;7.120;2024-02-21T14:17:39;1.93;;;1.70;;
1054;SDS011;516;51.482;7.120;2024-02-21T14:20:05;4.20;;;2.10;;
1054;SDS011;516;51.482;7.120;2024-02-21T14:22:32;2.30;;;2.10;;
1054;SDS011;516;51.482;7.120;2024-02-21T14:24:59;3.77;;;1.90;;
1054;SDS011;516;51.482;7.120;2024-02-21T14:27:25;2.57;;;2.30;;
1054;SDS011;516;51.482;7.120;2024-02-21T14:29:51;2.20;;;2.00;;
1054;SDS011;516;51.482;7.120;2024-02-21T14:32:18;2.90;;;2.03;;
1054;SDS011;516;51.482;7.120;2024-02-21T14:34:44;3.67;;;2.23;;
1054;SDS011;516;51.482;7.120;2024-02-21T14:37:10;2.33;;;1.93;;
1054;SDS011;516;51.482;7.120;2024-02-21T14:39:37;2.10;;;1.70;;
1054;SDS011;516;51.482;7.120;2024-02-21T14:42:02;2.90;;;2.23;;
1054;SDS011;516;51.482;7.120;2024-02-21T14:44:28;2.83;;;1.87;;
1054;SDS011;516;51.482;7.120;2024-02-21T14:46:54;2.77;;;2.17;;
1054;SDS011;516;51.482;7.120;2024-02-21T14:49:19;1.80;;;1.70;;
1054;SDS011;516;51.482;7.120;2024-02-21T14:51:45;2.63;;;1.93;;
1054;SDS011;516;51.482;7.120;2024-02-21T14:54:11;2.97;;;2.37;;
1054;SDS011;516;51.482;7.120;2024-02-21T14:56:36;1.97;;;1.77;;
1054;SDS011;516;51.482;7.120;2024-02-21T14:59:02;2.70;;;1.80;;
1054;SDS011;516;51.482;7.120;2024-02-21T15:01:29;2.27;;;2.07;;
1054;SDS011;516;51.482;7.120;2024-02-21T15:03:54;1.90;;;1.80;;
1054;SDS011;516;51.482;7.120;2024-02-21T15:06:20;2.10;;;1.90;;
1054;SDS011;516;51.482;7.120;2024-02-21T15:08:46;2.30;;;2.00;;
1054;SDS011;516;51.482;7.120;2024-02-21T15:11:13;2.03;;;1.93;;
1054;SDS011;516;51.482;7.120;2024-02-21T15:13:39;3.83;;;2.17;;
1054;SDS011;516;51.482;7.120;2024-02-21T15:16:05;3.47;;;2.50;;
1054;SDS011;516;51.482;7.120;2024-02-21T15:18:30;2.17;;;1.97;;
1054;SDS011;516;51.482;7.120;2024-02-21T15:20:58;2.17;;;1.97;;
1054;SDS011;516;51.482;7.120;2024-02-21T15:23:25;4.17;;;2.83;;
1054;SDS011;516;51.482;7.120;2024-02-21T15:25:50;2.50;;;2.30;;
1054;SDS011;516;51.482;7.120;2024-02-21T15:28:16;1.80;;;1.70;;